Webcam

Richtung Osten

METAR LOWZ 021800Z AUTO 27012KT 7000 -RASN OVC020 02/01 Q1024=

Richtung Westen

METAR LOWZ 021800Z AUTO 27012KT 7000 -RASN OVC020 02/01 Q1024=

Richtung Norden

METAR LOWZ 021800Z AUTO 27012KT 7000 -RASN OVC020 02/01 Q1024=